createdAt,value
2023-03-26T07:29:50.397Z,101203.53
2023-03-26T07:32:29.071Z,101188.28
2023-03-26T07:35:14.092Z,101191.28
2023-03-26T07:37:51.230Z,101182.59
2023-03-26T07:40:42.328Z,101180.97
2023-03-26T07:43:20.175Z,101184.88
2023-03-26T07:45:47.731Z,101164.31
2023-03-26T07:48:18.868Z,101185.19
2023-03-26T07:50:46.562Z,101171.97
2023-03-26T07:53:14.090Z,101179.81
2023-03-26T07:55:52.700Z,101168.03
2023-03-26T07:58:47.432Z,101166.53
2023-03-26T08:01:34.754Z,101160.69
2023-03-26T08:04:28.457Z,101176.47
2023-03-26T08:07:11.308Z,101182.38
2023-03-26T08:09:57.022Z,101174.78
2023-03-26T08:12:33.168Z,101182.63
2023-03-26T08:15:12.576Z,101170.69
2023-03-26T08:17:53.707Z,101183.03
2023-03-26T08:20:41.756Z,101188.22
2023-03-26T08:23:14.005Z,101172.81
2023-03-26T08:26:17.704Z,101190.53
2023-03-26T08:29:04.272Z,101204.75
2023-03-26T08:31:39.347Z,101203.88
2023-03-26T08:34:10.089Z,101193.97
2023-03-26T08:36:37.281Z,101189.72
2023-03-26T08:39:05.602Z,101194.72
2023-03-26T08:41:56.944Z,101219.00
2023-03-26T08:44:57.026Z,101210.53
2023-03-26T08:47:49.081Z,101212.09
2023-03-26T08:50:34.498Z,101202.91
2023-03-26T08:53:13.462Z,101193.94
2023-03-26T08:56:01.858Z,101204.97
2023-03-26T08:58:47.270Z,101208.88
2023-03-26T09:01:32.341Z,101202.84
2023-03-26T09:04:18.813Z,101203.09
2023-03-26T09:07:01.364Z,101217.09
2023-03-26T09:10:01.902Z,101211.94
2023-03-26T09:12:53.290Z,101206.63
2023-03-26T09:15:48.278Z,101216.75
2023-03-26T09:18:42.269Z,101220.41
2023-03-26T09:21:56.051Z,101225.13
2023-03-26T09:24:38.740Z,101221.78
2023-03-26T09:27:37.601Z,101216.66
2023-03-26T09:30:19.572Z,101218.41
2023-03-26T09:33:10.050Z,101204.88
2023-03-26T09:35:53.127Z,101200.97
2023-03-26T09:38:44.753Z,101197.56
2023-03-26T09:41:21.417Z,101192.59
2023-03-26T09:44:14.386Z,101210.31
2023-03-26T09:47:29.578Z,101216.78
2023-03-26T09:50:35.813Z,101206.81
2023-03-26T09:53:14.659Z,101220.91
2023-03-26T09:56:19.336Z,101226.88
2023-03-26T09:59:05.164Z,101226.06
2023-03-26T10:01:38.016Z,101223.25
2023-03-26T10:04:29.223Z,101224.59
2023-03-26T10:07:30.756Z,101229.59
2023-03-26T10:10:13.261Z,101203.13
2023-03-26T10:12:46.372Z,101203.97
2023-03-26T10:15:41.334Z,101220.78
2023-03-26T10:18:31.913Z,101218.19
2023-03-26T10:21:24.940Z,101208.91
2023-03-26T10:24:24.305Z,101197.44
2023-03-26T10:27:19.970Z,101205.00
2023-03-26T10:30:26.330Z,101209.19
2023-03-26T10:33:24.952Z,101208.84
2023-03-26T10:36:10.574Z,101211.56
2023-03-26T10:39:36.709Z,101220.16
2023-03-26T10:42:29.665Z,101221.91
2023-03-26T10:45:24.000Z,101210.44
2023-03-26T10:48:03.141Z,101205.28
2023-03-26T10:51:05.383Z,101203.78
2023-03-26T10:53:48.957Z,101197.78
2023-03-26T10:56:31.375Z,101190.69
2023-03-26T10:59:08.480Z,101182.03
2023-03-26T11:02:01.548Z,101185.00
2023-03-26T11:04:40.488Z,101191.44
2023-03-26T11:07:32.256Z,101188.13
2023-03-26T11:10:12.235Z,101186.13
2023-03-26T11:12:56.473Z,101174.44
2023-03-26T11:15:42.877Z,101185.00
2023-03-26T11:18:35.583Z,101195.66
2023-03-26T11:21:18.461Z,101193.63
2023-03-26T11:24:09.070Z,101182.78
2023-03-26T11:26:46.996Z,101189.56
2023-03-26T11:29:38.223Z,101187.69
2023-03-26T11:32:24.775Z,101180.94
2023-03-26T11:35:40.368Z,101177.06
2023-03-26T11:38:33.184Z,101168.66
2023-03-26T11:41:03.310Z,101184.56
2023-03-26T11:43:36.005Z,101171.00
2023-03-26T11:46:13.723Z,101172.38
2023-03-26T11:48:44.987Z,101157.75
2023-03-26T11:51:18.937Z,101181.31
2023-03-26T11:53:46.984Z,101179.00
2023-03-26T11:56:28.870Z,101177.19
2023-03-26T11:59:21.206Z,101181.91
2023-03-26T12:02:17.471Z,101190.66
2023-03-26T12:04:51.080Z,101180.00
2023-03-26T12:07:21.474Z,101178.84
2023-03-26T12:09:53.625Z,101165.63
2023-03-26T12:12:27.209Z,101168.28
2023-03-26T12:14:55.141Z,101159.75
2023-03-26T12:17:36.070Z,101176.38
2023-03-26T12:20:27.952Z,101163.09
2023-03-26T12:23:00.976Z,101181.94
2023-03-26T12:25:32.185Z,101169.81
2023-03-26T12:28:14.629Z,101177.75
2023-03-26T12:31:05.776Z,101169.25
2023-03-26T12:33:35.472Z,101169.88
2023-03-26T12:36:25.831Z,101152.91
2023-03-26T12:39:16.018Z,101153.50
2023-03-26T12:44:44.554Z,101152.69
2023-03-26T12:44:47.437Z,101142.03
2023-03-26T12:47:56.195Z,101138.50
2023-03-26T12:50:15.902Z,101132.72
2023-03-26T12:53:19.439Z,101150.41
2023-03-26T12:56:17.823Z,101133.88
2023-03-26T12:58:55.408Z,101156.34
2023-03-26T13:01:58.138Z,101155.06
2023-03-26T13:05:02.301Z,101130.97
2023-03-26T13:08:03.627Z,101087.56
2023-03-26T13:10:39.873Z,101104.69
2023-03-26T13:13:28.504Z,101115.41
2023-03-26T13:16:03.267Z,101108.44
2023-03-26T13:19:06.579Z,101086.09
2023-03-26T13:21:43.890Z,101082.59
2023-03-26T13:24:28.197Z,101094.47
2023-03-26T13:27:07.338Z,101119.00
2023-03-26T13:29:56.823Z,101097.72
2023-03-26T13:32:39.593Z,101087.56
2023-03-26T13:35:22.046Z,101097.94
2023-03-26T13:38:22.894Z,101101.25
2023-03-26T13:41:37.566Z,101100.66
2023-03-26T13:44:15.035Z,101089.59
2023-03-26T13:46:49.322Z,101084.88
2023-03-26T13:49:42.149Z,101070.97
2023-03-26T13:52:23.402Z,101078.72
2023-03-26T13:55:02.248Z,101061.22
2023-03-26T13:57:46.870Z,101048.19
2023-03-26T14:00:23.446Z,101056.31
2023-03-26T14:03:10.292Z,101055.75
2023-03-26T14:05:47.432Z,101040.78
2023-03-26T14:08:32.715Z,101030.09
2023-03-26T14:11:11.222Z,101019.91
2023-03-26T14:13:49.671Z,101041.47
2023-03-26T14:16:47.236Z,101047.56
2023-03-26T14:19:29.523Z,101032.16
2023-03-26T14:22:44.336Z,101032.31
2023-03-26T14:25:19.997Z,101032.44
2023-03-26T14:27:49.874Z,101014.56
2023-03-26T14:30:35.149Z,101022.16
2023-03-26T14:33:12.978Z,101012.00
2023-03-26T14:36:01.639Z,101003.38
2023-03-26T14:38:52.908Z,100996.56
2023-03-26T14:41:33.862Z,100997.31
2023-03-26T14:44:30.265Z,100984.91
2023-03-26T14:47:22.510Z,100979.34
2023-03-26T14:50:26.832Z,100977.03
2023-03-26T14:53:00.951Z,100979.66
2023-03-26T14:56:01.833Z,100974.19
2023-03-26T14:58:51.204Z,100971.91
2023-03-26T15:01:22.746Z,100968.81
2023-03-26T15:04:41.867Z,100972.13
2023-03-26T15:07:46.519Z,100983.31
2023-03-26T15:10:23.190Z,100971.00
2023-03-26T15:13:06.538Z,100981.25
2023-03-26T15:15:45.728Z,100980.91
2023-03-26T15:18:46.095Z,100989.47
2023-03-26T15:21:45.309Z,100981.81
2023-03-26T15:24:56.718Z,100983.56
2023-03-26T15:27:50.400Z,100988.81
2023-03-26T15:30:53.468Z,100980.28
2023-03-26T15:33:44.740Z,100989.69
2023-03-26T15:36:42.564Z,100999.06
2023-03-26T15:39:59.861Z,100981.94
2023-03-26T15:42:38.098Z,100983.34
2023-03-26T15:45:36.644Z,100973.63
2023-03-26T15:48:30.806Z,100959.28
2023-03-26T15:51:29.970Z,100967.41
2023-03-26T15:54:20.944Z,100963.25
2023-03-26T15:57:31.466Z,100960.22
2023-03-26T16:00:20.033Z,100951.81
2023-03-26T16:02:53.965Z,100953.56
2023-03-26T16:05:24.440Z,100955.13
2023-03-26T16:08:26.937Z,100956.78
2023-03-26T16:11:02.782Z,100947.06
2023-03-26T16:13:38.347Z,100956.03
2023-03-26T16:16:07.108Z,100965.06
2023-03-26T16:18:41.388Z,100976.03
2023-03-26T16:21:31.672Z,100974.16
2023-03-26T16:24:02.438Z,100956.84
2023-03-26T16:26:44.780Z,100962.88
2023-03-26T16:29:16.000Z,100963.03
2023-03-26T16:32:11.231Z,100963.25
2023-03-26T16:34:45.732Z,100960.03
2023-03-26T16:37:37.786Z,100962.56
2023-03-26T16:40:17.154Z,100941.28
2023-03-26T16:42:50.181Z,100935.88
2023-03-26T16:45:30.025Z,100938.84
2023-03-26T16:48:31.024Z,100934.91
2023-03-26T16:51:12.288Z,100938.78
2023-03-26T16:53:46.264Z,100939.03
2023-03-26T16:56:18.101Z,100935.69
2023-03-26T16:58:56.372Z,100942.69
2023-03-26T17:01:47.176Z,100947.38
2023-03-26T17:04:30.747Z,100962.13
2023-03-26T17:07:14.196Z,100945.50
2023-03-26T17:10:02.386Z,100935.41
2023-03-26T17:12:44.644Z,100927.28
2023-03-26T17:15:22.853Z,100933.31
2023-03-26T17:18:02.859Z,100928.75
2023-03-26T17:20:56.122Z,100933.84
2023-03-26T17:23:54.136Z,100935.44
2023-03-26T17:26:26.822Z,100924.06
2023-03-26T17:29:27.539Z,100937.44
2023-03-26T17:32:09.323Z,100943.00
2023-03-26T17:34:39.410Z,100943.69
2023-03-26T17:37:11.935Z,100926.03
2023-03-26T17:39:46.985Z,100933.44
2023-03-26T17:42:13.948Z,100922.06
2023-03-26T17:44:53.661Z,100933.56
2023-03-26T17:47:26.449Z,100938.03
2023-03-26T17:50:24.688Z,100948.91
2023-03-26T17:52:54.347Z,100952.91
2023-03-26T17:55:28.070Z,100956.06
2023-03-26T17:57:58.606Z,100967.94
2023-03-26T18:00:43.548Z,100977.59
2023-03-26T18:03:17.702Z,100983.97
2023-03-26T18:05:46.409Z,100995.25
2023-03-26T18:08:47.247Z,100991.28
2023-03-26T18:11:45.326Z,100994.53
2023-03-26T18:14:31.084Z,100988.97
2023-03-26T18:17:00.952Z,100986.69
2023-03-26T18:19:29.099Z,100992.66
2023-03-26T18:22:03.958Z,100986.53
2023-03-26T18:24:39.227Z,100983.53
2023-03-26T18:27:16.798Z,100988.41
2023-03-26T18:30:01.821Z,100970.59
2023-03-26T18:32:33.938Z,100972.38
2023-03-26T18:35:43.796Z,100969.81
2023-03-26T18:38:36.162Z,100981.66
2023-03-26T18:41:08.237Z,100990.34
2023-03-26T18:43:43.800Z,100986.75
2023-03-26T18:46:14.914Z,100981.66
2023-03-26T18:48:42.631Z,100983.13
2023-03-26T18:51:10.793Z,100977.94
2023-03-26T18:53:52.527Z,100946.31
2023-03-26T18:56:28.721Z,100972.69
2023-03-26T18:58:59.090Z,100961.13
2023-03-26T19:01:32.042Z,100965.22
2023-03-26T19:04:04.179Z,100970.19
2023-03-26T19:06:38.545Z,100972.22
2023-03-26T19:09:19.657Z,100962.66
2023-03-26T19:11:57.443Z,100950.78
2023-03-26T19:14:26.439Z,100934.00
2023-03-26T19:16:59.787Z,100935.22
2023-03-26T19:19:32.760Z,100946.16
2023-03-26T19:22:00.269Z,100930.66
2023-03-26T19:24:27.776Z,100921.91
2023-03-26T19:26:54.998Z,100926.25
2023-03-26T19:29:28.970Z,100915.44
2023-03-26T19:32:06.643Z,100922.91
2023-03-26T19:34:41.376Z,100932.91
2023-03-26T19:37:27.123Z,100918.50
2023-03-26T19:40:05.847Z,100925.56
2023-03-26T19:42:42.850Z,100931.41
2023-03-26T19:45:18.862Z,100914.56
2023-03-26T19:47:52.227Z,100915.50
2023-03-26T19:50:28.905Z,100942.66
2023-03-26T19:53:25.699Z,100939.88
2023-03-26T19:55:55.872Z,100927.38
2023-03-26T19:58:23.108Z,100930.25
2023-03-26T20:00:50.288Z,100925.03
2023-03-26T20:03:27.600Z,100932.69
2023-03-26T20:05:54.808Z,100925.84
2023-03-26T20:08:27.495Z,100917.16
2023-03-26T20:10:58.919Z,100928.09
2023-03-26T20:13:26.519Z,100929.22
2023-03-26T20:16:12.259Z,100925.25
2023-03-26T20:18:39.330Z,100911.03
2023-03-26T20:21:12.156Z,100935.38
2023-03-26T20:23:41.023Z,100921.91
2023-03-26T20:26:14.115Z,100915.41
2023-03-26T20:28:48.142Z,100917.19
2023-03-26T20:31:22.737Z,100904.75
2023-03-26T20:33:52.142Z,100923.84
2023-03-26T20:36:34.103Z,100906.16
2023-03-26T20:39:08.433Z,100897.22
2023-03-26T20:41:39.163Z,100904.47
2023-03-26T20:44:15.522Z,100892.88
2023-03-26T20:46:44.152Z,100918.88
2023-03-26T20:49:11.862Z,100912.53
2023-03-26T20:51:42.154Z,100917.78
2023-03-26T20:54:16.182Z,100913.91
2023-03-26T20:56:43.758Z,100913.09
2023-03-26T20:59:12.148Z,100917.81
2023-03-26T21:01:39.520Z,100911.31
2023-03-26T21:04:07.194Z,100889.94
2023-03-26T21:06:34.218Z,100908.16
2023-03-26T21:09:01.603Z,100910.25
2023-03-26T21:11:50.559Z,100905.75
2023-03-26T21:14:28.288Z,100924.72
2023-03-26T21:16:55.730Z,100913.34
2023-03-26T21:19:23.071Z,100925.75
2023-03-26T21:22:15.040Z,100936.13
2023-03-26T21:25:03.771Z,100920.59
2023-03-26T21:27:49.477Z,100934.69
2023-03-26T21:30:17.172Z,100940.53
2023-03-26T21:32:45.724Z,100940.41
2023-03-26T21:35:15.131Z,100924.38
2023-03-26T21:37:44.210Z,100940.53
2023-03-26T21:40:14.926Z,100939.56
2023-03-26T21:42:44.641Z,100938.44
2023-03-26T21:45:12.493Z,100949.03
2023-03-26T21:47:40.206Z,100927.47
2023-03-26T21:53:29.743Z,100927.47
2023-03-26T21:56:23.577Z,100923.56
2023-03-26T21:59:12.550Z,100937.63
2023-03-26T22:02:10.221Z,100938.09
2023-03-26T22:04:45.803Z,100926.53
2023-03-26T22:07:27.689Z,100926.72
2023-03-26T22:09:54.992Z,100927.88
2023-03-26T22:12:22.449Z,100929.16
2023-03-26T22:14:49.577Z,100928.34
2023-03-26T22:17:16.640Z,100929.97
2023-03-26T22:19:43.815Z,100933.75
2023-03-26T22:22:11.115Z,100938.66
2023-03-26T22:24:38.716Z,100955.81
2023-03-26T22:27:05.955Z,100953.69
2023-03-26T22:29:33.039Z,100950.75
2023-03-26T22:32:00.124Z,100940.63
2023-03-26T22:34:27.113Z,100954.00
2023-03-26T22:36:54.108Z,100963.63
2023-03-26T22:39:21.851Z,100966.72
2023-03-26T22:41:49.117Z,100971.66
2023-03-26T22:44:26.318Z,100959.06
2023-03-26T22:47:00.972Z,100960.22
2023-03-26T22:49:40.777Z,100957.13
2023-03-26T22:52:21.332Z,100942.53
2023-03-26T22:55:01.059Z,100969.81
2023-03-26T22:57:38.392Z,100978.47
2023-03-26T23:00:13.107Z,100976.16
2023-03-26T23:02:41.072Z,100991.19
